Time;durP1;ratioP1;P1;durP2;ratioP2;P2;SDS_P1;SDS_P2;PMS_P1;PMS_P2;Temp;Humidity;BMP_temperature;BMP_pressure;BME280_temperature;BME280_humidity;BME280_pressure;Samples;Min_cycle;Max_cycle;Signal;HPM_P1;HPM_P2
2023/07/03 00:02:00;;;;;;;7.28;6.57;;;;;;;;;;4708313;30;20052;-76
2023/07/03 00:04:28;;;;;;;8.10;6.28;;;;;;;;;;4712054;30;20136;-76
2023/07/03 00:06:56;;;;;;;7.13;6.38;;;;;;;;;;4710823;30;20160;-76
2023/07/03 00:09:23;;;;;;;7.70;6.78;;;;;;;;;;4706792;30;20442;-76
2023/07/03 00:11:51;;;;;;;7.55;6.75;;;;;;;;;;4710726;30;20053;-75
2023/07/03 00:14:18;;;;;;;7.43;6.60;;;;;;;;;;4708896;30;20060;-76
2023/07/03 00:16:46;;;;;;;7.43;6.15;;;;;;;;;;4707339;30;20142;-76
2023/07/03 00:19:13;;;;;;;8.43;7.22;;;;;;;;;;4705944;30;20088;-76
2023/07/03 00:21:44;;;;;;;7.32;6.63;;;;;;;;;;4706657;30;20113;-75
2023/07/03 00:24:12;;;;;;;8.00;6.97;;;;;;;;;;4708811;30;20049;-76
2023/07/03 00:26:40;;;;;;;7.82;6.78;;;;;;;;;;4705427;30;20540;-75
2023/07/03 00:29:07;;;;;;;7.43;6.72;;;;;;;;;;4711228;30;20064;-75
2023/07/03 00:31:35;;;;;;;6.80;6.13;;;;;;;;;;4709251;30;20057;-75
2023/07/03 00:34:03;;;;;;;6.97;6.18;;;;;;;;;;4705230;30;20076;-75
2023/07/03 00:36:30;;;;;;;7.50;6.30;;;;;;;;;;4708786;30;20378;-75
2023/07/03 00:38:59;;;;;;;7.03;6.32;;;;;;;;;;4709398;30;20053;-75
2023/07/03 00:41:27;;;;;;;7.13;6.30;;;;;;;;;;4719632;30;20227;-75
2023/07/03 00:43:54;;;;;;;12.50;7.47;;;;;;;;;;4707355;30;20056;-75
2023/07/03 00:46:24;;;;;;;7.82;6.63;;;;;;;;;;4706148;30;20103;-76
2023/07/03 00:48:51;;;;;;;7.78;6.43;;;;;;;;;;4709949;30;20080;-76
2023/07/03 00:51:19;;;;;;;8.95;7.15;;;;;;;;;;4708450;30;20136;-75
2023/07/03 00:53:46;;;;;;;8.85;7.15;;;;;;;;;;4705818;30;20080;-75
2023/07/03 00:56:14;;;;;;;9.32;7.07;;;;;;;;;;4705594;30;20422;-75
2023/07/03 00:58:42;;;;;;;7.57;6.78;;;;;;;;;;4704519;30;20057;-75
2023/07/03 01:01:15;;;;;;;7.95;6.60;;;;;;;;;;4705316;30;20127;-77
2023/07/03 01:03:48;;;;;;;7.35;6.53;;;;;;;;;;4709465;30;20053;-75
2023/07/03 01:06:20;;;;;;;7.32;6.55;;;;;;;;;;4708206;30;20060;-76
2023/07/03 01:08:51;;;;;;;7.55;6.25;;;;;;;;;;4703295;30;20052;-76
2023/07/03 01:11:20;;;;;;;7.53;6.55;;;;;;;;;;4710118;30;20060;-76
2023/07/03 01:13:50;;;;;;;7.28;6.43;;;;;;;;;;4707292;30;20069;-76
2023/07/03 01:16:18;;;;;;;8.60;6.90;;;;;;;;;;4709675;30;20057;-76
2023/07/03 01:18:47;;;;;;;9.95;7.25;;;;;;;;;;4709901;30;20138;-76
2023/07/03 01:21:14;;;;;;;7.18;6.47;;;;;;;;;;4704610;30;20058;-76
2023/07/03 01:23:52;;;;;;;7.65;6.85;;;;;;;;;;4704707;30;20059;-76
2023/07/03 01:26:21;;;;;;;7.63;6.82;;;;;;;;;;4717979;30;20056;-75
2023/07/03 01:28:54;;;;;;;8.98;7.03;;;;;;;;;;4709581;30;20130;-76
2023/07/03 01:31:23;;;;;;;8.18;6.63;;;;;;;;;;4703806;30;20053;-75
2023/07/03 01:33:51;;;;;;;8.32;6.97;;;;;;;;;;4703173;30;20063;-76
2023/07/03 01:36:20;;;;;;;8.43;7.53;;;;;;;;;;4709986;30;20053;-76
2023/07/03 01:38:48;;;;;;;8.30;7.32;;;;;;;;;;4704908;30;20583;-75
2023/07/03 01:41:17;;;;;;;7.53;6.75;;;;;;;;;;4706615;30;20049;-76
2023/07/03 01:43:46;;;;;;;9.65;6.80;;;;;;;;;;4705486;30;20060;-76
2023/07/03 01:46:15;;;;;;;7.82;7.00;;;;;;;;;;4707730;30;20416;-75
2023/07/03 01:48:43;;;;;;;10.05;8.00;;;;;;;;;;4704555;30;20061;-75
2023/07/03 01:51:15;;;;;;;8.63;6.93;;;;;;;;;;4704304;30;20077;-75
2023/07/03 01:53:42;;;;;;;;;;;;;;;;;;4709659;30;20574;-76
2023/07/03 01:56:16;;;;;;;7.93;6.40;;;;;;;;;;4704456;30;19938;-76
2023/07/03 01:58:47;;;;;;;7.88;6.70;;;;;;;;;;4707639;30;20077;-76
2023/07/03 02:01:21;;;;;;;7.82;6.70;;;;;;;;;;4705628;30;20147;-76
2023/07/03 02:03:59;;;;;;;9.25;7.20;;;;;;;;;;4718361;30;20112;-75
2023/07/03 02:06:33;;;;;;;8.07;7.18;;;;;;;;;;4705259;30;20057;-76
2023/07/03 02:09:05;;;;;;;11.32;7.90;;;;;;;;;;4706211;30;20064;-76
2023/07/03 02:11:35;;;;;;;8.07;7.20;;;;;;;;;;4707814;30;20476;-76
2023/07/03 02:14:03;;;;;;;7.97;7.07;;;;;;;;;;4704142;30;20056;-76
2023/07/03 02:16:31;;;;;;;9.15;8.02;;;;;;;;;;4699312;30;20053;-75
2023/07/03 02:19:01;;;;;;;7.53;6.78;;;;;;;;;;4706816;30;20057;-76
2023/07/03 02:21:29;;;;;;;8.60;7.70;;;;;;;;;;4718361;30;20052;-75
2023/07/03 02:23:57;;;;;;;7.95;7.00;;;;;;;;;;4707175;30;20067;-75
2023/07/03 02:26:24;;;;;;;10.23;7.53;;;;;;;;;;4708904;30;20473;-76
2023/07/03 02:28:52;;;;;;;8.88;7.57;;;;;;;;;;4744716;24;20543;-84
2023/07/03 02:31:19;;;;;;;10.63;7.00;;;;;;;;;;4724212;30;20144;-83
2023/07/03 02:33:48;;;;;;;8.55;7.00;;;;;;;;;;4717965;30;20072;-83
2023/07/03 02:36:17;;;;;;;9.55;7.88;;;;;;;;;;4705935;30;20065;-84
2023/07/03 02:38:44;;;;;;;8.10;7.18;;;;;;;;;;4704698;30;20048;-84
2023/07/03 02:41:12;;;;;;;9.10;7.28;;;;;;;;;;4709088;30;20057;-85
2023/07/03 02:43:39;;;;;;;10.43;7.45;;;;;;;;;;4710974;30;20579;-85
2023/07/03 02:46:08;;;;;;;10.85;7.68;;;;;;;;;;4709632;30;20057;-84
2023/07/03 02:48:35;;;;;;;11.02;7.07;;;;;;;;;;4722995;30;20080;-85
2023/07/03 02:51:03;;;;;;;10.50;7.20;;;;;;;;;;4704325;30;20163;-84
2023/07/03 02:53:33;;;;;;;9.52;7.45;;;;;;;;;;4723528;30;20136;-85
2023/07/03 02:56:07;;;;;;;8.45;7.50;;;;;;;;;;4722214;30;20131;-84
2023/07/03 02:58:36;;;;;;;9.18;7.80;;;;;;;;;;4707294;30;20049;-84
2023/07/03 03:01:04;;;;;;;8.50;7.22;;;;;;;;;;4707705;30;20465;-85
2023/07/03 03:03:32;;;;;;;8.98;7.78;;;;;;;;;;4709275;30;20053;-84
2023/07/03 03:06:00;;;;;;;10.20;7.78;;;;;;;;;;4707485;30;20453;-84
2023/07/03 03:08:27;;;;;;;7.70;6.68;;;;;;;;;;4710204;30;20060;-84
2023/07/03 03:10:55;;;;;;;9.20;7.50;;;;;;;;;;4709011;30;20061;-84
2023/07/03 03:13:22;;;;;;;9.18;8.13;;;;;;;;;;4710192;30;20057;-84
2023/07/03 03:15:54;;;;;;;9.63;7.95;;;;;;;;;;4703987;30;20805;-84
2023/07/03 03:18:22;;;;;;;9.57;8.02;;;;;;;;;;4708450;30;20061;-84
2023/07/03 03:20:50;;;;;;;10.32;7.60;;;;;;;;;;4707132;30;20049;-83
2023/07/03 03:23:17;;;;;;;8.95;7.45;;;;;;;;;;4703531;30;20579;-84
2023/07/03 03:25:46;;;;;;;8.55;7.65;;;;;;;;;;4707852;30;20063;-85
2023/07/03 03:28:13;;;;;;;8.07;7.10;;;;;;;;;;4703410;30;20063;-85
2023/07/03 03:30:41;;;;;;;9.15;7.60;;;;;;;;;;4710381;30;20052;-84
2023/07/03 03:33:09;;;;;;;8.43;7.63;;;;;;;;;;4716020;30;20536;-84
2023/07/03 03:35:36;;;;;;;9.18;7.97;;;;;;;;;;4705878;30;20045;-84
2023/07/03 03:38:03;;;;;;;8.23;7.43;;;;;;;;;;4713063;30;20492;-85
2023/07/03 03:40:32;;;;;;;9.75;8.02;;;;;;;;;;4710665;30;20056;-84
2023/07/03 03:43:00;;;;;;;10.50;7.97;;;;;;;;;;4712283;30;20068;-85
2023/07/03 03:45:27;;;;;;;10.05;7.32;;;;;;;;;;4711655;30;20053;-84
2023/07/03 03:47:55;;;;;;;7.78;7.07;;;;;;;;;;4714309;30;20065;-84
2023/07/03 03:50:23;;;;;;;8.77;7.45;;;;;;;;;;4711894;30;20053;-84
2023/07/03 03:52:50;;;;;;;8.63;7.75;;;;;;;;;;4716392;30;20131;-84
2023/07/03 03:55:18;;;;;;;8.60;7.35;;;;;;;;;;4714015;30;20053;-85
2023/07/03 03:57:48;;;;;;;8.20;7.20;;;;;;;;;;4727124;30;20072;-85
2023/07/03 04:00:16;;;;;;;8.65;7.38;;;;;;;;;;4709241;30;20138;-85
2023/07/03 04:02:46;;;;;;;10.20;7.72;;;;;;;;;;4711686;30;20056;-85
2023/07/03 04:05:14;;;;;;;9.73;6.95;;;;;;;;;;4713139;30;20134;-85
2023/07/03 04:07:41;;;;;;;8.57;7.43;;;;;;;;;;4725405;30;20057;-84
2023/07/03 04:10:09;;;;;;;7.28;6.55;;;;;;;;;;4715122;30;20059;-85
2023/07/03 04:12:37;;;;;;;8.27;7.38;;;;;;;;;;4714306;30;20053;-85
2023/07/03 04:15:04;;;;;;;8.60;7.30;;;;;;;;;;4713647;30;20140;-86
2023/07/03 04:17:35;;;;;;;10.18;7.75;;;;;;;;;;4714300;30;20053;-85
2023/07/03 04:20:07;;;;;;;8.70;7.87;;;;;;;;;;4708417;30;20531;-84
2023/07/03 04:22:35;;;;;;;8.50;7.45;;;;;;;;;;4710467;30;20065;-85
2023/07/03 04:25:02;;;;;;;9.65;7.15;;;;;;;;;;4711779;30;20150;-84
2023/07/03 04:27:29;;;;;;;9.95;7.90;;;;;;;;;;4708099;30;20147;-85
2023/07/03 04:29:57;;;;;;;9.30;8.02;;;;;;;;;;4708672;30;20057;-85
2023/07/03 04:32:25;;;;;;;12.73;9.00;;;;;;;;;;4707301;30;20057;-85
2023/07/03 04:34:53;;;;;;;11.23;7.80;;;;;;;;;;4711034;30;20053;-85
2023/07/03 04:37:20;;;;;;;9.32;8.35;;;;;;;;;;4713689;30;20060;-85
2023/07/03 04:39:48;;;;;;;9.77;7.93;;;;;;;;;;4716610;30;20081;-85
2023/07/03 04:42:15;;;;;;;9.10;8.20;;;;;;;;;;4714211;30;20087;-85
2023/07/03 04:44:43;;;;;;;10.23;8.07;;;;;;;;;;4711332;30;20060;-86
2023/07/03 04:47:15;;;;;;;10.82;7.75;;;;;;;;;;4709911;30;20045;-86
2023/07/03 04:49:48;;;;;;;9.00;8.10;;;;;;;;;;4715168;30;20057;-86
2023/07/03 04:52:19;;;;;;;9.43;7.68;;;;;;;;;;4705032;30;20369;-87
2023/07/03 04:54:54;;;;;;;8.80;7.65;;;;;;;;;;4712313;30;20093;-87
2023/07/03 04:57:22;;;;;;;8.35;7.30;;;;;;;;;;4704606;30;20061;-87
2023/07/03 04:59:49;;;;;;;10.88;8.30;;;;;;;;;;4712566;30;20275;-86
2023/07/03 05:02:17;;;;;;;9.43;8.35;;;;;;;;;;4706060;30;20057;-84
2023/07/03 05:04:45;;;;;;;10.30;8.20;;;;;;;;;;4711825;30;20057;-85
2023/07/03 05:07:13;;;;;;;12.45;8.57;;;;;;;;;;4713110;30;20057;-86
2023/07/03 05:09:41;;;;;;;8.85;7.93;;;;;;;;;;4714976;30;20091;-86
2023/07/03 05:12:09;;;;;;;8.98;8.07;;;;;;;;;;4719570;30;20088;-86
2023/07/03 05:14:39;;;;;;;11.32;8.68;;;;;;;;;;4712183;30;20067;-85
2023/07/03 05:17:07;;;;;;;10.57;9.30;;;;;;;;;;4721754;30;20049;-85
2023/07/03 05:19:34;;;;;;;9.40;8.43;;;;;;;;;;4728625;30;20059;-85
2023/07/03 05:22:04;;;;;;;10.32;8.05;;;;;;;;;;4721132;30;20053;-84
2023/07/03 05:24:41;;;;;;;9.23;8.25;;;;;;;;;;4722872;30;20115;-86
2023/07/03 05:27:09;;;;;;;9.25;8.18;;;;;;;;;;4727838;30;20053;-85
2023/07/03 05:29:37;;;;;;;10.45;9.00;;;;;;;;;;4727790;30;20125;-85
2023/07/03 05:32:05;;;;;;;9.70;8.10;;;;;;;;;;4733627;30;20059;-84
2023/07/03 05:34:33;;;;;;;10.05;8.30;;;;;;;;;;4730669;30;20065;-85
2023/07/03 05:37:02;;;;;;;9.45;8.05;;;;;;;;;;4732311;30;20057;-84
2023/07/03 05:39:33;;;;;;;9.65;8.65;;;;;;;;;;4735687;30;20136;-85
2023/07/03 05:42:04;;;;;;;10.48;8.43;;;;;;;;;;4731842;30;20050;-86
2023/07/03 05:44:32;;;;;;;11.50;8.90;;;;;;;;;;4731756;30;20517;-85
2023/07/03 05:46:59;;;;;;;9.63;8.63;;;;;;;;;;4732489;30;20056;-85
2023/07/03 05:49:27;;;;;;;9.35;8.07;;;;;;;;;;4733890;30;20041;-86
2023/07/03 05:51:55;;;;;;;9.65;8.55;;;;;;;;;;4729343;30;20061;-85
2023/07/03 05:54:22;;;;;;;10.02;8.43;;;;;;;;;;4734090;30;20064;-85
2023/07/03 05:57:00;;;;;;;11.32;8.65;;;;;;;;;;4731007;30;20067;-86
2023/07/03 05:59:27;;;;;;;9.95;8.65;;;;;;;;;;4735234;30;20047;-85
2023/07/03 06:01:56;;;;;;;9.23;8.10;;;;;;;;;;4733649;30;20041;-87
2023/07/03 06:04:24;;;;;;;9.15;8.10;;;;;;;;;;4736342;30;20045;-85
2023/07/03 06:06:52;;;;;;;11.20;9.13;;;;;;;;;;4753582;30;20062;-85
2023/07/03 06:09:20;;;;;;;10.40;8.57;;;;;;;;;;4737151;30;20041;-85
2023/07/03 06:11:47;;;;;;;9.43;8.15;;;;;;;;;;4740339;30;20029;-86
2023/07/03 06:14:17;;;;;;;9.85;8.85;;;;;;;;;;4736206;30;20057;-85
2023/07/03 06:16:45;;;;;;;10.38;9.27;;;;;;;;;;4737013;30;20033;-85
2023/07/03 06:19:13;;;;;;;10.30;8.70;;;;;;;;;;4730712;30;20106;-87
2023/07/03 06:21:42;;;;;;;11.15;9.02;;;;;;;;;;4732671;30;20055;-86
2023/07/03 06:24:11;;;;;;;12.38;9.55;;;;;;;;;;4733618;30;20105;-87
2023/07/03 06:26:39;;;;;;;10.65;8.38;;;;;;;;;;4734452;30;20060;-86
2023/07/03 06:29:07;;;;;;;10.52;8.77;;;;;;;;;;4731154;30;20057;-85
2023/07/03 06:31:35;;;;;;;9.90;8.30;;;;;;;;;;4733473;30;20071;-85
2023/07/03 06:34:05;;;;;;;9.60;8.27;;;;;;;;;;4729896;30;20049;-85
2023/07/03 06:36:34;;;;;;;9.90;8.90;;;;;;;;;;4731228;30;20056;-86
2023/07/03 06:39:05;;;;;;;11.18;9.18;;;;;;;;;;4731273;30;20057;-86
2023/07/03 06:41:34;;;;;;;11.45;10.07;;;;;;;;;;4729844;30;20056;-86
2023/07/03 06:44:05;;;;;;;11.18;9.60;;;;;;;;;;4731714;30;20084;-85
2023/07/03 06:46:33;;;;;;;10.98;8.65;;;;;;;;;;4727594;30;20053;-86
2023/07/03 06:49:01;;;;;;;11.52;9.52;;;;;;;;;;4718909;30;20061;-86
2023/07/03 06:51:28;;;;;;;12.90;8.70;;;;;;;;;;4714843;30;20053;-85
2023/07/03 06:53:56;;;;;;;9.90;8.45;;;;;;;;;;4734228;30;20056;-88
2023/07/03 06:56:23;;;;;;;10.00;8.98;;;;;;;;;;4713273;30;20127;-85
2023/07/03 06:58:51;;;;;;;11.00;9.52;;;;;;;;;;4714394;30;20045;-88
2023/07/03 07:01:19;;;;;;;11.50;8.85;;;;;;;;;;4714582;30;20053;-86
2023/07/03 07:03:47;;;;;;;10.45;9.02;;;;;;;;;;4716974;30;20056;-85
2023/07/03 07:06:14;;;;;;;9.40;8.40;;;;;;;;;;4708689;30;20056;-86
2023/07/03 07:08:42;;;;;;;10.70;8.80;;;;;;;;;;4722102;30;20064;-84
2023/07/03 07:11:10;;;;;;;8.98;7.82;;;;;;;;;;4726650;30;20056;-84
2023/07/03 07:13:42;;;;;;;10.20;8.63;;;;;;;;;;4713946;30;20064;-85
2023/07/03 07:16:13;;;;;;;11.48;8.88;;;;;;;;;;4710882;30;20053;-86
2023/07/03 07:18:41;;;;;;;10.15;9.02;;;;;;;;;;4709045;30;20057;-84
2023/07/03 07:21:09;;;;;;;8.70;7.80;;;;;;;;;;4712578;30;20687;-85
2023/07/03 07:23:43;;;;;;;11.57;9.38;;;;;;;;;;4722602;30;20076;-84
2023/07/03 07:26:28;;;;;;;12.55;9.25;;;;;;;;;;4694198;30;20076;-84
2023/07/03 07:28:56;;;;;;;9.45;8.18;;;;;;;;;;4713625;30;20060;-84
2023/07/03 07:31:24;;;;;;;8.35;7.55;;;;;;;;;;4724969;30;20068;-85
2023/07/03 07:33:52;;;;;;;12.00;8.98;;;;;;;;;;4710684;30;20061;-84
2023/07/03 07:36:21;;;;;;;10.05;8.95;;;;;;;;;;4701743;30;20054;-84
2023/07/03 07:38:49;;;;;;;11.30;8.57;;;;;;;;;;4709241;30;20045;-85
2023/07/03 07:41:19;;;;;;;9.20;8.07;;;;;;;;;;4711938;30;20053;-86
2023/07/03 07:43:50;;;;;;;12.18;9.13;;;;;;;;;;4704754;30;20589;-85
2023/07/03 07:46:19;;;;;;;12.25;9.88;;;;;;;;;;4705507;30;20137;-84
2023/07/03 07:48:49;;;;;;;9.02;7.85;;;;;;;;;;4717750;30;20742;-85
2023/07/03 07:51:16;;;;;;;9.35;7.40;;;;;;;;;;4708844;30;20057;-84
2023/07/03 07:53:44;;;;;;;7.53;6.38;;;;;;;;;;4706842;30;20090;-84
2023/07/03 07:56:11;;;;;;;10.32;8.35;;;;;;;;;;4713144;30;20053;-82
2023/07/03 07:58:54;;;;;;;11.25;7.93;;;;;;;;;;4718453;30;20046;-89
2023/07/03 08:01:24;;;;;;;7.82;6.35;;;;;;;;;;4704272;30;20520;-83
2023/07/03 08:03:51;;;;;;;7.93;6.05;;;;;;;;;;4711918;30;20186;-83
2023/07/03 08:06:19;;;;;;;7.72;6.10;;;;;;;;;;4713978;30;20060;-84
2023/07/03 08:08:46;;;;;;;7.95;6.00;;;;;;;;;;4728999;30;20048;-84
2023/07/03 08:11:14;;;;;;;7.25;6.25;;;;;;;;;;4724727;30;20070;-83
2023/07/03 08:13:41;;;;;;;6.95;5.82;;;;;;;;;;4718079;30;20071;-84
2023/07/03 08:16:10;;;;;;;6.90;5.95;;;;;;;;;;4731676;30;20448;-83
2023/07/03 08:18:37;;;;;;;6.78;5.55;;;;;;;;;;4731220;30;20047;-83
2023/07/03 08:21:05;;;;;;;8.85;5.28;;;;;;;;;;4730345;30;20068;-84
2023/07/03 08:23:32;;;;;;;6.20;5.60;;;;;;;;;;4722911;30;20060;-82
2023/07/03 08:26:01;;;;;;;9.00;6.45;;;;;;;;;;4734384;30;20053;-83
2023/07/03 08:28:28;;;;;;;8.10;6.40;;;;;;;;;;4730303;30;20052;-84
2023/07/03 08:30:57;;;;;;;9.27;6.30;;;;;;;;;;4733691;30;20144;-84
2023/07/03 08:33:25;;;;;;;6.82;5.80;;;;;;;;;;4733791;30;20067;-83
2023/07/03 08:35:53;;;;;;;6.78;5.60;;;;;;;;;;4732698;30;20136;-84
2023/07/03 08:38:24;;;;;;;7.18;5.57;;;;;;;;;;4742139;30;20090;-83
2023/07/03 08:40:58;;;;;;;7.82;5.85;;;;;;;;;;4731259;30;20068;-83
2023/07/03 08:43:29;;;;;;;6.00;5.22;;;;;;;;;;4732063;30;20056;-83
2023/07/03 08:45:57;;;;;;;7.97;5.65;;;;;;;;;;4732527;30;20052;-85
2023/07/03 08:48:26;;;;;;;8.23;6.78;;;;;;;;;;4733499;30;20071;-85
2023/07/03 08:50:56;;;;;;;8.07;6.60;;;;;;;;;;4733115;30;20114;-83
2023/07/03 08:53:27;;;;;;;9.50;7.05;;;;;;;;;;4726234;30;20678;-85
2023/07/03 08:56:03;;;;;;;9.55;6.93;;;;;;;;;;4730897;30;20084;-86
2023/07/03 08:58:31;;;;;;;7.00;5.65;;;;;;;;;;4728780;30;20048;-84
2023/07/03 09:01:08;;;;;;;7.80;6.05;;;;;;;;;;4732674;30;20053;-85
2023/07/03 09:03:45;;;;;;;8.80;6.25;;;;;;;;;;4733265;30;20080;-87
2023/07/03 09:06:16;;;;;;;8.77;6.25;;;;;;;;;;4732950;30;20049;-83
2023/07/03 09:09:03;;;;;;;8.80;6.03;;;;;;;;;;4733363;30;20080;-87
2023/07/03 09:11:33;;;;;;;7.35;5.95;;;;;;;;;;4734259;30;20131;-83
2023/07/03 09:14:01;;;;;;;8.75;6.65;;;;;;;;;;4732292;30;20136;-83
2023/07/03 09:16:31;;;;;;;6.85;5.78;;;;;;;;;;4731929;30;20232;-83
2023/07/03 09:19:01;;;;;;;6.00;5.38;;;;;;;;;;4732950;30;20060;-83
2023/07/03 09:21:30;;;;;;;7.40;6.40;;;;;;;;;;4732674;30;20079;-83
2023/07/03 09:24:00;;;;;;;9.02;6.95;;;;;;;;;;4733146;30;20074;-85
2023/07/03 09:26:44;;;;;;;8.98;6.82;;;;;;;;;;4746171;30;20049;-86
2023/07/03 09:29:12;;;;;;;8.10;6.90;;;;;;;;;;4730904;30;20092;-85
2023/07/03 09:31:44;;;;;;;9.23;7.53;;;;;;;;;;4732167;30;20143;-86
2023/07/03 09:34:12;;;;;;;9.65;7.50;;;;;;;;;;4730654;30;20052;-83
2023/07/03 09:36:43;;;;;;;8.48;7.20;;;;;;;;;;4731533;30;20065;-82
2023/07/03 09:39:15;;;;;;;10.27;7.68;;;;;;;;;;4732291;30;20132;-83
2023/07/03 09:41:42;;;;;;;9.98;7.13;;;;;;;;;;4730973;30;20072;-83
2023/07/03 09:44:14;;;;;;;10.40;6.95;;;;;;;;;;4732010;30;20495;-84
2023/07/03 09:46:42;;;;;;;9.43;6.80;;;;;;;;;;4732200;30;20053;-83
2023/07/03 09:49:15;;;;;;;9.48;6.88;;;;;;;;;;4731852;30;20061;-83
2023/07/03 09:51:43;;;;;;;7.18;5.95;;;;;;;;;;4731529;30;20063;-82
2023/07/03 09:54:23;;;;;;;6.40;5.80;;;;;;;;;;4731591;30;20069;-83
2023/07/03 09:56:51;;;;;;;9.97;6.70;;;;;;;;;;4731745;30;20057;-87
2023/07/03 09:59:19;;;;;;;7.78;6.90;;;;;;;;;;4731884;30;20115;-86
2023/07/03 10:01:48;;;;;;;6.47;5.72;;;;;;;;;;4731799;30;20473;-83
2023/07/03 10:04:18;;;;;;;6.57;5.05;;;;;;;;;;4731287;30;20041;-83
2023/07/03 10:07:07;;;;;;;8.20;6.33;;;;;;;;;;4731559;30;20048;-83
2023/07/03 10:09:36;;;;;;;9.57;6.60;;;;;;;;;;4732063;30;20056;-83
2023/07/03 10:12:13;;;;;;;9.40;5.97;;;;;;;;;;4732243;30;20102;-84
2023/07/03 10:14:53;;;;;;;9.23;6.78;;;;;;;;;;4731661;30;20060;-84
2023/07/03 10:17:24;;;;;;;8.68;6.32;;;;;;;;;;4729947;30;20429;-82
2023/07/03 10:19:54;;;;;;;8.32;6.53;;;;;;;;;;4732372;30;20170;-86
2023/07/03 10:22:24;;;;;;;6.47;5.72;;;;;;;;;;4731758;30;20119;-84
2023/07/03 10:24:52;;;;;;;8.20;5.80;;;;;;;;;;4733325;30;20175;-87
2023/07/03 10:27:26;;;;;;;8.82;6.03;;;;;;;;;;4733999;30;20052;-84
2023/07/03 10:29:54;;;;;;;8.80;6.67;;;;;;;;;;4734343;30;20060;-85
2023/07/03 10:32:24;;;;;;;9.13;6.50;;;;;;;;;;4735834;30;20307;-84
2023/07/03 10:34:52;;;;;;;7.57;6.35;;;;;;;;;;4733726;30;20056;-84
2023/07/03 10:37:21;;;;;;;7.75;5.47;;;;;;;;;;4729056;30;20091;-85
2023/07/03 10:40:09;;;;;;;6.55;5.47;;;;;;;;;;4726756;30;20606;-85
2023/07/03 10:42:45;;;;;;;9.40;6.43;;;;;;;;;;4721114;30;20442;-89
2023/07/03 10:45:14;;;;;;;8.13;6.00;;;;;;;;;;4746111;30;20124;-84
2023/07/03 10:48:11;;;;;;;8.73;5.80;;;;;;;;;;4709530;30;20666;-84
2023/07/03 10:51:14;;;;;;;7.93;6.32;;;;;;;;;;4708187;30;20453;-87
2023/07/03 10:53:45;;;;;;;5.75;4.78;;;;;;;;;;4693118;30;20120;-82
2023/07/03 10:56:30;;;;;;;6.00;5.15;;;;;;;;;;4720041;30;20138;-84
2023/07/03 10:59:21;;;;;;;9.13;5.70;;;;;;;;;;4731024;30;20060;-85
2023/07/03 11:01:49;;;;;;;;;;;;;;;;;;4733796;30;20085;-84
2023/07/03 11:04:21;;;;;;;5.68;5.07;;;;;;;;;;4730989;30;19927;-83
2023/07/03 11:07:07;;;;;;;5.25;4.45;;;;;;;;;;4732949;30;20053;-86
2023/07/03 11:09:47;;;;;;;6.18;4.75;;;;;;;;;;4711603;30;20056;-84
2023/07/03 11:12:22;;;;;;;8.07;5.50;;;;;;;;;;4713566;30;20069;-83
2023/07/03 11:15:08;;;;;;;4.82;4.35;;;;;;;;;;4727696;30;20570;-83
2023/07/03 11:17:39;;;;;;;6.05;5.35;;;;;;;;;;4729335;30;20073;-84
2023/07/03 11:20:35;;;;;;;7.50;5.40;;;;;;;;;;4735301;30;20048;-86
2023/07/03 11:23:12;;;;;;;6.78;5.90;;;;;;;;;;4732821;30;20140;-85
2023/07/03 11:25:58;;;;;;;7.55;6.05;;;;;;;;;;4729432;30;20503;-84
2023/07/03 11:28:55;;;;;;;7.30;5.70;;;;;;;;;;4730947;30;20079;-87
2023/07/03 11:31:26;;;;;;;6.07;5.38;;;;;;;;;;4728719;30;20056;-83
2023/07/03 11:33:54;;;;;;;;;;;;;;;;;;4730639;30;20103;-84
2023/07/03 11:36:35;;;;;;;5.43;4.93;;;;;;;;;;4730768;30;19938;-82
2023/07/03 11:39:21;;;;;;;6.63;4.55;;;;;;;;;;4731367;30;20053;-85
2023/07/03 11:42:00;;;;;;;5.20;4.45;;;;;;;;;;4729267;30;20053;-86
2023/07/03 11:44:30;;;;;;;5.63;5.00;;;;;;;;;;4731162;30;20048;-86
2023/07/03 11:47:04;;;;;;;7.30;5.70;;;;;;;;;;4731092;30;20620;-84
2023/07/03 11:49:53;;;;;;;5.95;4.90;;;;;;;;;;4731288;30;20470;-84
2023/07/03 11:52:24;;;;;;;8.32;5.80;;;;;;;;;;4732351;30;20424;-84
2023/07/03 11:54:59;;;;;;;6.50;5.78;;;;;;;;;;4732756;30;20068;-85
2023/07/03 11:57:28;;;;;;;5.80;5.22;;;;;;;;;;4734142;30;20056;-84
2023/07/03 12:00:13;;;;;;;7.68;5.40;;;;;;;;;;4733953;30;20060;-85
2023/07/03 12:02:40;;;;;;;6.82;4.55;;;;;;;;;;4733598;30;20459;-85
2023/07/03 12:05:09;;;;;;;6.85;5.32;;;;;;;;;;4733628;30;20072;-85
2023/07/03 12:07:37;;;;;;;7.43;5.40;;;;;;;;;;4733665;30;20081;-85
2023/07/03 12:10:33;;;;;;;5.82;5.22;;;;;;;;;;4733510;30;20200;-85
2023/07/03 12:13:20;;;;;;;6.22;5.50;;;;;;;;;;4732242;30;20479;-86
2023/07/03 12:15:55;;;;;;;6.10;5.50;;;;;;;;;;4732808;30;20659;-85
2023/07/03 12:18:22;;;;;;;6.57;5.57;;;;;;;;;;4733896;30;20053;-85
2023/07/03 12:20:57;;;;;;;5.97;5.38;;;;;;;;;;4734090;30;20417;-84
2023/07/03 12:23:31;;;;;;;5.32;4.68;;;;;;;;;;4734300;30;20061;-84
2023/07/03 12:26:12;;;;;;;4.85;4.45;;;;;;;;;;4733166;30;20425;-83
2023/07/03 12:28:43;;;;;;;5.37;4.40;;;;;;;;;;4733131;30;20138;-87
2023/07/03 12:31:14;;;;;;;7.90;6.03;;;;;;;;;;4735088;30;20772;-86
2023/07/03 12:33:49;;;;;;;5.78;4.90;;;;;;;;;;4725781;30;20059;-86
2023/07/03 12:36:28;;;;;;;5.28;4.70;;;;;;;;;;4720863;30;20064;-84
2023/07/03 12:39:00;;;;;;;6.00;5.10;;;;;;;;;;4733611;30;20110;-86
2023/07/03 12:41:31;;;;;;;6.80;5.00;;;;;;;;;;4732644;30;20405;-87
2023/07/03 12:44:00;;;;;;;4.88;4.30;;;;;;;;;;4733153;30;20095;-83
2023/07/03 12:46:37;;;;;;;4.90;3.97;;;;;;;;;;4732733;30;20057;-85
2023/07/03 12:49:09;;;;;;;4.32;3.92;;;;;;;;;;4732958;30;20482;-87
2023/07/03 12:51:38;;;;;;;5.03;4.15;;;;;;;;;;4732020;30;20138;-87
2023/07/03 12:54:07;;;;;;;5.25;4.70;;;;;;;;;;4732965;30;20052;-87
2023/07/03 12:56:35;;;;;;;5.15;4.40;;;;;;;;;;4733180;30;20131;-84
2023/07/03 12:59:03;;;;;;;5.32;4.80;;;;;;;;;;4733328;30;20049;-84
2023/07/03 13:01:32;;;;;;;6.25;4.80;;;;;;;;;;4733135;30;20075;-83
2023/07/03 13:03:59;;;;;;;4.22;3.90;;;;;;;;;;4731030;30;20136;-86
2023/07/03 13:06:29;;;;;;;5.60;4.10;;;;;;;;;;4727564;30;20140;-86
2023/07/03 13:08:57;;;;;;;5.22;4.35;;;;;;;;;;4722855;30;20052;-85
2023/07/03 13:11:32;;;;;;;4.57;4.00;;;;;;;;;;4733299;30;20500;-83
2023/07/03 13:14:18;;;;;;;4.38;3.97;;;;;;;;;;4731811;30;20483;-84
2023/07/03 13:16:49;;;;;;;5.10;4.10;;;;;;;;;;4732123;30;20590;-86
2023/07/03 13:19:33;;;;;;;4.85;4.35;;;;;;;;;;4733246;30;20068;-85
2023/07/03 13:22:03;;;;;;;4.53;4.13;;;;;;;;;;4732558;30;20083;-86
2023/07/03 13:24:34;;;;;;;4.90;4.40;;;;;;;;;;4733120;30;20056;-84
2023/07/03 13:27:04;;;;;;;4.55;3.90;;;;;;;;;;4724538;30;20165;-85
2023/07/03 13:29:33;;;;;;;4.50;4.03;;;;;;;;;;4732905;30;20056;-84
2023/07/03 13:32:14;;;;;;;4.20;3.80;;;;;;;;;;4731714;30;20538;-83
2023/07/03 13:35:01;;;;;;;4.82;4.43;;;;;;;;;;4731783;30;20067;-83
2023/07/03 13:37:31;;;;;;;4.85;4.30;;;;;;;;;;4727746;30;20053;-83
2023/07/03 13:39:58;;;;;;;4.93;4.18;;;;;;;;;;4709603;30;20105;-84
2023/07/03 13:42:30;;;;;;;4.88;4.30;;;;;;;;;;4711411;30;20140;-83
2023/07/03 13:44:57;;;;;;;4.00;3.60;;;;;;;;;;4722041;30;20052;-83
2023/07/03 13:47:25;;;;;;;4.28;3.88;;;;;;;;;;4712807;30;20057;-84
2023/07/03 13:49:55;;;;;;;6.10;4.68;;;;;;;;;;4713772;30;20053;-87
2023/07/03 13:52:23;;;;;;;5.45;4.10;;;;;;;;;;4715276;30;20057;-88
2023/07/03 13:54:51;;;;;;;5.13;4.15;;;;;;;;;;4729121;30;20164;-84
2023/07/03 13:57:19;;;;;;;4.68;3.97;;;;;;;;;;4733029;30;20135;-86
2023/07/03 13:59:47;;;;;;;5.15;4.40;;;;;;;;;;4731249;30;20605;-85
2023/07/03 14:02:14;;;;;;;7.00;4.25;;;;;;;;;;4732029;30;20060;-87
2023/07/03 14:04:49;;;;;;;5.05;4.53;;;;;;;;;;4732033;30;20052;-87
2023/07/03 14:07:17;;;;;;;4.80;4.38;;;;;;;;;;4730113;30;20110;-84
2023/07/03 14:09:44;;;;;;;5.18;4.57;;;;;;;;;;4731828;30;20135;-87
2023/07/03 14:12:12;;;;;;;4.32;3.92;;;;;;;;;;4731837;30;20402;-84
2023/07/03 14:14:39;;;;;;;4.53;4.13;;;;;;;;;;4722945;30;20577;-83
2023/07/03 14:17:07;;;;;;;4.80;4.40;;;;;;;;;;4712360;30;20064;-83
2023/07/03 14:19:34;;;;;;;3.85;3.55;;;;;;;;;;4711564;30;20049;-85
2023/07/03 14:22:02;;;;;;;4.47;4.07;;;;;;;;;;4714246;30;20057;-83
2023/07/03 14:24:29;;;;;;;5.65;3.90;;;;;;;;;;4730847;30;20574;-84
2023/07/03 14:26:57;;;;;;;4.00;3.70;;;;;;;;;;4730652;30;20056;-87
2023/07/03 14:29:24;;;;;;;4.60;3.88;;;;;;;;;;4728950;30;20827;-84
2023/07/03 14:31:52;;;;;;;4.35;3.95;;;;;;;;;;4708569;30;20120;-87
2023/07/03 14:34:19;;;;;;;3.92;3.53;;;;;;;;;;4708508;30;20304;-85
2023/07/03 14:36:47;;;;;;;4.43;3.95;;;;;;;;;;4714308;30;20490;-87
2023/07/03 14:39:15;;;;;;;5.30;3.75;;;;;;;;;;4724691;30;20049;-85
2023/07/03 14:41:42;;;;;;;4.03;3.65;;;;;;;;;;4732039;30;20049;-86
2023/07/03 14:44:22;;;;;;;3.83;3.42;;;;;;;;;;4731567;30;20139;-87
2023/07/03 14:46:50;;;;;;;4.40;4.00;;;;;;;;;;4731007;30;20120;-87
2023/07/03 14:49:20;;;;;;;4.65;3.80;;;;;;;;;;4706864;30;20052;-87
2023/07/03 14:51:50;;;;;;;5.05;3.25;;;;;;;;;;4715877;30;20068;-84
2023/07/03 14:54:17;;;;;;;4.03;3.72;;;;;;;;;;4723855;30;20091;-84
2023/07/03 14:56:45;;;;;;;4.93;3.70;;;;;;;;;;4731261;30;20500;-84
2023/07/03 14:59:13;;;;;;;5.65;3.58;;;;;;;;;;4731997;30;20072;-86
2023/07/03 15:01:40;;;;;;;4.03;3.72;;;;;;;;;;4731960;30;20049;-84